Time;durP1;ratioP1;P1;durP2;ratioP2;P2;SDS_P1;SDS_P2;PMS_P1;PMS_P2;Temp;Humidity;BMP_temperature;BMP_pressure;BME280_temperature;BME280_humidity;BME280_pressure;Samples;Min_cycle;Max_cycle;Signal;HPM_P1;HPM_P2
2022/01/08 00:00:43;;;;;;;7.37;5.40;;;2.20;99.90;;;;;;4995325;28;20176;-74
2022/01/08 00:03:09;;;;;;;7.97;6.03;;;2.10;99.90;;;;;;4995410;28;20320;-73
2022/01/08 00:05:34;;;;;;;8.30;5.90;;;2.10;99.90;;;;;;4994959;28;20289;-73
2022/01/08 00:08:00;;;;;;;9.63;6.03;;;2.10;99.90;;;;;;4995247;28;20172;-73
2022/01/08 00:10:26;;;;;;;8.20;5.50;;;2.10;99.90;;;;;;4994713;28;20195;-74
2022/01/08 00:12:52;;;;;;;5.00;4.27;;;2.30;99.90;;;;;;4995228;28;20196;-74
2022/01/08 00:15:18;;;;;;;4.93;4.53;;;2.10;99.90;;;;;;4995402;28;20284;-74
2022/01/08 00:17:44;;;;;;;4.27;3.90;;;2.10;99.90;;;;;;4994992;28;20327;-74
2022/01/08 00:20:10;;;;;;;5.00;4.60;;;2.00;99.90;;;;;;4994913;28;20188;-74
2022/01/08 00:22:35;;;;;;;4.63;4.20;;;2.10;99.90;;;;;;4993821;28;20196;-73
2022/01/08 00:25:01;;;;;;;3.97;3.63;;;2.10;99.90;;;;;;4994903;28;20206;-74
2022/01/08 00:27:27;;;;;;;6.37;4.10;;;2.20;99.90;;;;;;4994953;28;20172;-74
2022/01/08 00:29:53;;;;;;;5.67;4.20;;;2.20;99.90;;;;;;4994926;28;20261;-74
2022/01/08 00:32:19;;;;;;;4.23;3.70;;;2.20;99.90;;;;;;4994723;28;20747;-73
2022/01/08 00:34:44;;;;;;;4.63;4.07;;;2.10;99.90;;;;;;4994740;28;20207;-73
2022/01/08 00:37:10;;;;;;;5.30;4.80;;;2.20;99.90;;;;;;4994589;28;20184;-74
2022/01/08 00:39:36;;;;;;;6.87;4.97;;;2.20;99.90;;;;;;4994607;28;20164;-72
2022/01/08 00:42:02;;;;;;;4.90;4.40;;;2.20;99.90;;;;;;4994552;28;20195;-73
2022/01/08 00:44:28;;;;;;;4.77;4.37;;;2.20;99.90;;;;;;4994809;28;20250;-73
2022/01/08 00:46:54;;;;;;;4.63;4.17;;;2.10;99.90;;;;;;4994410;28;20180;-72
2022/01/08 00:49:19;;;;;;;14.07;11.33;;;2.10;99.90;;;;;;4994567;28;20183;-73
2022/01/08 00:51:45;;;;;;;7.67;7.00;;;2.00;99.90;;;;;;4994218;28;20594;-74
2022/01/08 00:54:11;;;;;;;9.83;8.83;;;1.90;99.90;;;;;;4994567;28;20511;-73
2022/01/08 00:56:36;;;;;;;5.77;5.27;;;1.90;99.90;;;;;;4994630;28;20181;-73
2022/01/08 00:59:04;;;;;;;6.57;5.40;;;2.00;99.90;;;;;;4993820;28;20505;-73
2022/01/08 01:01:29;;;;;;;6.23;4.90;;;2.00;99.90;;;;;;5004939;28;20195;-73
2022/01/08 01:03:55;;;;;;;6.30;4.00;;;2.10;99.90;;;;;;4996369;28;20556;-73
2022/01/08 01:06:21;;;;;;;4.40;4.00;;;2.20;99.90;;;;;;4994008;28;20634;-73
2022/01/08 01:08:46;;;;;;;6.17;5.57;;;2.00;99.90;;;;;;4994290;28;20553;-73
2022/01/08 01:11:12;;;;;;;6.83;4.93;;;2.00;99.90;;;;;;4994162;28;20616;-73
2022/01/08 01:13:38;;;;;;;5.00;4.50;;;2.00;99.90;;;;;;4994134;28;20176;-72
2022/01/08 01:16:04;;;;;;;6.67;4.87;;;1.90;99.90;;;;;;4992739;28;20267;-73
2022/01/08 01:18:30;;;;;;;5.40;4.77;;;1.80;99.90;;;;;;4994097;28;20536;-72
2022/01/08 01:20:55;;;;;;;6.07;4.37;;;1.80;99.90;;;;;;4992398;28;20222;-73
2022/01/08 01:23:29;;;;;;;5.70;4.10;;;1.80;99.90;;;;;;4993839;28;20214;-74
2022/01/08 01:26:00;;;;;;;6.10;4.87;;;1.80;99.90;;;;;;4993809;28;20203;-72
2022/01/08 01:47:11;;;;;;;4.83;4.40;;;2.20;99.90;;;;;;4993440;28;20182;-73
2022/01/08 01:49:41;;;;;;;5.87;5.27;;;2.20;99.90;;;;;;4992089;28;20171;-73
2022/01/08 01:52:09;;;;;;;6.30;5.70;;;2.10;99.90;;;;;;4992002;28;20286;-73
2022/01/08 01:54:36;;;;;;;6.43;5.83;;;2.10;99.90;;;;;;4991936;28;20643;-73
2022/01/08 01:57:04;;;;;;;7.73;6.37;;;2.10;99.90;;;;;;4992076;28;20184;-73
2022/01/08 01:59:32;;;;;;;5.97;5.37;;;2.10;99.90;;;;;;4993315;28;20187;-73
2022/01/08 02:01:58;;;;;;;7.43;6.27;;;2.10;99.90;;;;;;4993083;28;20204;-73
2022/01/08 02:04:24;;;;;;;7.17;6.57;;;2.10;99.90;;;;;;4991914;28;20658;-73
2022/01/08 02:06:49;;;;;;;7.27;6.20;;;2.00;99.90;;;;;;4992989;28;20183;-73
2022/01/08 02:09:15;;;;;;;6.80;6.27;;;2.00;99.90;;;;;;4993208;28;20176;-74
2022/01/08 02:12:04;;;;;;;7.83;7.07;;;2.00;99.90;;;;;;4992396;28;20204;-74
2022/01/08 02:14:33;;;;;;;8.30;7.47;;;1.90;99.90;;;;;;4993144;28;20181;-74
2022/01/08 02:16:59;;;;;;;8.60;7.70;;;1.90;99.90;;;;;;4992696;28;20177;-74
2022/01/08 02:19:26;;;;;;;8.47;7.63;;;1.90;99.90;;;;;;4991721;28;20177;-74
2022/01/08 02:21:57;;;;;;;8.63;7.27;;;1.90;99.90;;;;;;4992812;28;20197;-74
2022/01/08 02:24:24;;;;;;;8.80;8.00;;;1.90;99.90;;;;;;4992081;28;20195;-74
2022/01/08 02:26:50;;;;;;;8.40;7.50;;;1.80;99.90;;;;;;4993002;28;20555;-73
2022/01/08 02:29:19;;;;;;;8.63;7.73;;;1.80;99.90;;;;;;4992834;28;20230;-73
2022/01/08 02:31:55;;;;;;;8.57;7.20;;;1.80;99.90;;;;;;4992701;28;20598;-73
2022/01/08 02:34:21;;;;;;;8.03;7.23;;;1.80;99.90;;;;;;4992724;28;20237;-73
2022/01/08 02:36:47;;;;;;;7.60;6.90;;;1.80;99.90;;;;;;4992604;28;20640;-74
2022/01/08 02:39:12;;;;;;;7.47;6.67;;;1.80;99.90;;;;;;4991511;28;20177;-73
2022/01/08 02:41:39;;;;;;;7.17;6.57;;;1.80;99.90;;;;;;4990481;28;20194;-73
2022/01/08 02:44:09;;;;;;;6.60;6.00;;;2.30;99.90;;;;;;4991881;28;20206;-73
2022/01/08 02:46:37;;;;;;;6.37;5.77;;;1.80;99.90;;;;;;4991746;28;20172;-73
2022/01/08 02:49:03;;;;;;;6.67;6.07;;;1.80;99.90;;;;;;4991061;28;20207;-73
2022/01/08 02:51:31;;;;;;;6.57;5.97;;;1.80;99.90;;;;;;4991198;28;20226;-74
2022/01/08 02:53:56;;;;;;;6.53;5.93;;;1.80;99.90;;;;;;4991928;28;20168;-73
2022/01/08 02:56:22;;;;;;;5.70;5.30;;;1.80;99.90;;;;;;4992641;28;20180;-73
2022/01/08 02:58:48;;;;;;;5.37;4.97;;;1.80;99.90;;;;;;4992773;28;20195;-73
2022/01/08 03:01:13;;;;;;;5.60;5.10;;;1.70;99.90;;;;;;4992547;28;20202;-73
2022/01/08 03:03:39;;;;;;;5.37;4.87;;;2.10;99.90;;;;;;4991122;28;20184;-74
2022/01/08 03:06:04;;;;;;;4.83;4.33;;;1.60;99.90;;;;;;4982111;28;20203;-73
2022/01/08 03:08:30;;;;;;;5.60;4.67;;;1.60;99.90;;;;;;4974390;28;20177;-74
2022/01/08 03:10:55;;;;;;;5.73;5.23;;;1.50;99.90;;;;;;4972082;28;20256;-73
2022/01/08 03:13:21;;;;;;;5.30;4.80;;;1.60;99.90;;;;;;4987278;28;20176;-74
2022/01/08 03:15:47;;;;;;;6.73;5.13;;;1.60;99.90;;;;;;4973184;28;20186;-74
2022/01/08 03:18:12;;;;;;;5.30;4.80;;;1.50;99.90;;;;;;4974059;28;20641;-74
2022/01/08 03:20:46;;;;;;;5.10;4.70;;;1.50;99.90;;;;;;4974660;28;20177;-74
2022/01/08 03:23:15;;;;;;;5.50;5.00;;;1.50;99.90;;;;;;4974314;28;20197;-74
2022/01/08 03:25:42;;;;;;;4.40;4.00;;;1.60;99.90;;;;;;4977142;28;20205;-74
2022/01/08 03:28:08;;;;;;;4.63;4.23;;;1.60;99.90;;;;;;4975991;28;20175;-73
2022/01/08 03:30:34;;;;;;;4.53;4.10;;;1.60;99.90;;;;;;4988333;28;20535;-74
2022/01/08 03:33:00;;;;;;;4.70;4.30;;;1.60;99.90;;;;;;4994936;28;20258;-74
2022/01/08 03:35:26;;;;;;;4.50;4.10;;;1.60;99.90;;;;;;4999488;28;20175;-74
2022/01/08 03:37:52;;;;;;;4.57;3.73;;;1.50;99.90;;;;;;4998507;28;20191;-73
2022/01/08 03:40:18;;;;;;;4.07;3.70;;;1.60;99.90;;;;;;4995925;28;20175;-73
2022/01/08 03:42:43;;;;;;;4.30;3.67;;;1.50;99.90;;;;;;4995670;28;20245;-74
2022/01/08 03:45:09;;;;;;;4.13;3.83;;;1.80;99.90;;;;;;4995766;28;20544;-73
2022/01/08 03:50:33;;;;;;;3.73;3.43;;;1.60;99.90;;;;;;4973070;28;20183;-74
2022/01/08 03:52:59;;;;;;;4.23;3.80;;;1.60;99.90;;;;;;4995439;28;20687;-74
2022/01/08 03:55:25;;;;;;;4.33;3.47;;;2.20;99.90;;;;;;4995541;28;20172;-74
2022/01/08 03:57:50;;;;;;;3.77;3.43;;;1.60;99.90;;;;;;4995569;28;20184;-73
2022/01/08 04:00:16;;;;;;;3.90;3.60;;;1.60;99.90;;;;;;4995297;28;20704;-74
2022/01/08 04:02:41;;;;;;;3.53;3.20;;;1.60;99.90;;;;;;4994210;28;20226;-74
2022/01/08 04:05:07;;;;;;;3.30;3.10;;;1.60;99.90;;;;;;4995281;28;20245;-73
2022/01/08 04:07:33;;;;;;;3.20;2.77;;;1.70;99.90;;;;;;4994982;28;20176;-73
2022/01/08 04:09:59;;;;;;;2.87;2.10;;;1.90;99.90;;;;;;4992044;28;20190;-74
2022/01/08 04:12:36;;;;;;;2.50;2.30;;;1.70;99.90;;;;;;5006823;28;20203;-74
2022/01/08 04:15:46;;;;;;;2.40;2.20;;;1.70;99.90;;;;;;5003785;28;20601;-73
2022/01/08 04:17:53;;;;;;;1.70;1.60;;;1.70;99.90;;;;;;4989367;28;20229;-73
2022/01/08 04:20:20;;;;;;;1.77;1.67;;;1.70;99.90;;;;;;4994913;28;20187;-73
2022/01/08 04:22:49;;;;;;;1.97;1.50;;;1.70;99.90;;;;;;4994857;28;20199;-73
2022/01/08 04:25:16;;;;;;;2.03;1.60;;;1.80;99.90;;;;;;4993342;28;20206;-73
2022/01/08 04:27:42;;;;;;;2.93;1.20;;;1.70;99.90;;;;;;4995117;28;20175;-73
2022/01/08 04:30:08;;;;;;;1.90;1.67;;;1.70;99.90;;;;;;5002006;28;20556;-73
2022/01/08 04:32:34;;;;;;;1.73;1.63;;;1.70;99.90;;;;;;4993172;28;20235;-73
2022/01/08 04:34:59;;;;;;;1.60;1.50;;;1.80;99.90;;;;;;4994056;28;20619;-73
2022/01/08 04:37:25;;;;;;;1.30;1.20;;;1.80;99.90;;;;;;4994480;28;20180;-73
2022/01/08 04:39:51;;;;;;;1.20;1.10;;;1.90;99.90;;;;;;4993418;28;20191;-73
2022/01/08 04:42:16;;;;;;;1.47;1.20;;;1.90;99.90;;;;;;4994436;28;20203;-73
2022/01/08 04:44:42;;;;;;;1.30;1.20;;;1.90;99.90;;;;;;4993312;28;20199;-73
2022/01/08 04:47:07;;;;;;;1.40;1.30;;;2.00;99.90;;;;;;4994431;28;20178;-73
2022/01/08 04:49:34;;;;;;;1.17;1.07;;;2.20;99.90;;;;;;4994434;28;20269;-73
2022/01/08 04:51:59;;;;;;;1.30;1.20;;;2.00;99.90;;;;;;4994530;28;20261;-73
2022/01/08 04:54:25;;;;;;;1.30;1.07;;;2.00;99.90;;;;;;4994392;28;20176;-73
2022/01/08 04:56:51;;;;;;;1.67;0.97;;;2.00;99.90;;;;;;5003861;28;20183;-74
2022/01/08 04:59:17;;;;;;;1.30;1.20;;;2.00;99.90;;;;;;5000389;28;20187;-73
2022/01/08 05:01:44;;;;;;;0.83;0.83;;;2.00;99.90;;;;;;4983167;28;20220;-72
2022/01/08 05:04:09;;;;;;;1.10;1.00;;;2.00;99.90;;;;;;4990210;28;20215;-74
2022/01/08 05:06:35;;;;;;;1.10;0.90;;;2.00;99.90;;;;;;4993461;28;20172;-73
2022/01/08 05:09:02;;;;;;;1.03;0.93;;;2.00;99.90;;;;;;4993213;28;20645;-73
2022/01/08 05:11:28;;;;;;;0.80;0.80;;;2.10;99.90;;;;;;4992691;28;20199;-74
2022/01/08 05:13:54;;;;;;;0.83;0.83;;;2.00;99.90;;;;;;4993994;28;20175;-74
2022/01/08 05:16:26;;;;;;;0.70;0.70;;;2.00;99.90;;;;;;4991711;28;20637;-73
2022/01/08 05:18:54;;;;;;;2.47;1.00;;;2.10;99.90;;;;;;4993975;28;20258;-74
2022/01/08 05:21:28;;;;;;;0.80;0.80;;;1.90;99.90;;;;;;4993859;28;20199;-73
2022/01/08 05:23:55;;;;;;;0.70;0.70;;;1.80;99.90;;;;;;4993732;28;20171;-73
2022/01/08 05:26:23;;;;;;;1.00;0.80;;;1.80;99.90;;;;;;4993704;28;20187;-73
2022/01/08 05:28:48;;;;;;;1.10;1.00;;;1.80;99.90;;;;;;4993689;28;20665;-73
2022/01/08 05:31:17;;;;;;;1.20;1.10;;;2.40;99.90;;;;;;4993593;28;20226;-73
2022/01/08 05:33:43;;;;;;;0.67;0.67;;;1.70;99.90;;;;;;4993081;28;20263;-73
2022/01/08 05:36:08;;;;;;;1.57;0.70;;;1.70;99.90;;;;;;4993552;28;20890;-73
2022/01/08 05:38:34;;;;;;;0.77;0.77;;;1.70;99.90;;;;;;4993020;28;20258;-73
2022/01/08 05:41:00;;;;;;;0.60;0.50;;;1.70;99.90;;;;;;4999356;28;20205;-73
2022/01/08 05:43:26;;;;;;;0.50;0.50;;;1.70;99.90;;;;;;5001019;28;20187;-74
2022/01/08 05:45:52;;;;;;;1.37;0.50;;;1.70;99.90;;;;;;4993346;28;20231;-74
2022/01/08 05:48:17;;;;;;;0.97;0.60;;;1.80;99.90;;;;;;4993680;28;20588;-73
2022/01/08 05:50:43;;;;;;;0.70;0.60;;;1.80;99.90;;;;;;4993686;28;20214;-74
2022/01/08 05:53:09;;;;;;;0.40;0.40;;;1.80;99.90;;;;;;4993361;28;20195;-73
2022/01/08 05:55:35;;;;;;;0.40;0.40;;;1.80;99.90;;;;;;4982531;28;20645;-73
2022/01/08 05:58:01;;;;;;;1.40;0.60;;;1.80;99.90;;;;;;4982012;28;20191;-74
2022/01/08 06:00:26;;;;;;;1.17;0.50;;;1.80;99.90;;;;;;4973267;28;20176;-74
2022/01/08 06:02:52;;;;;;;0.50;0.50;;;1.80;99.90;;;;;;4978172;28;20680;-74
2022/01/08 06:05:17;;;;;;;0.67;0.50;;;1.80;99.90;;;;;;4972918;28;20688;-72
2022/01/08 06:07:43;;;;;;;0.50;0.50;;;1.80;99.90;;;;;;4977190;28;20294;-73
2022/01/08 06:10:09;;;;;;;1.40;0.60;;;1.80;99.90;;;;;;4979424;28;20180;-74
2022/01/08 06:12:34;;;;;;;0.50;0.50;;;1.80;99.90;;;;;;4992937;28;20211;-73
2022/01/08 06:15:00;;;;;;;0.70;0.60;;;1.80;99.90;;;;;;4993077;28;20587;-73
2022/01/08 06:17:26;;;;;;;0.50;0.50;;;1.80;99.90;;;;;;4977148;28;20676;-74
2022/01/08 06:19:51;;;;;;;1.33;0.60;;;1.80;99.90;;;;;;4972577;28;20211;-73
2022/01/08 06:22:17;;;;;;;1.33;0.60;;;1.90;99.90;;;;;;4976332;28;20201;-73
2022/01/08 06:24:43;;;;;;;3.70;0.50;;;2.00;99.90;;;;;;4972656;28;20234;-74
2022/01/08 06:27:08;;;;;;;0.40;0.40;;;1.90;99.90;;;;;;4973527;28;20224;-74
2022/01/08 06:29:34;;;;;;;1.23;0.60;;;1.90;99.90;;;;;;4972316;28;20176;-73
2022/01/08 06:32:00;;;;;;;0.53;0.40;;;2.00;99.90;;;;;;4973231;28;20723;-74
2022/01/08 06:34:25;;;;;;;0.50;0.50;;;2.00;99.90;;;;;;4972322;28;20204;-74
2022/01/08 06:36:51;;;;;;;0.90;0.50;;;2.00;99.90;;;;;;4972383;28;20191;-74
2022/01/08 06:39:18;;;;;;;0.70;0.70;;;2.00;99.90;;;;;;4979013;28;20645;-73
2022/01/08 06:41:44;;;;;;;0.67;0.53;;;2.10;99.90;;;;;;4975405;28;20212;-73
2022/01/08 06:44:10;;;;;;;0.67;0.50;;;2.10;99.90;;;;;;4974790;28;20573;-74
2022/01/08 06:46:36;;;;;;;1.17;0.43;;;2.10;99.90;;;;;;4976159;28;20631;-73
2022/01/08 06:49:02;;;;;;;0.97;0.47;;;2.10;99.90;;;;;;4974655;28;20183;-74
2022/01/08 06:51:27;;;;;;;0.77;0.60;;;2.10;99.90;;;;;;4972071;28;20615;-74
2022/01/08 06:53:53;;;;;;;0.50;0.50;;;2.20;99.90;;;;;;4972430;28;20641;-74
2022/01/08 06:56:19;;;;;;;0.40;0.40;;;2.10;99.90;;;;;;4975785;28;20839;-74
2022/01/08 06:58:46;;;;;;;0.40;0.40;;;2.10;99.90;;;;;;4976275;28;20180;-74
2022/01/08 07:01:11;;;;;;;0.50;0.30;;;2.80;99.90;;;;;;5002916;28;20184;-74
2022/01/08 07:03:37;;;;;;;1.37;0.40;;;2.10;99.90;;;;;;4996490;28;20179;-74
2022/01/08 07:06:04;;;;;;;0.40;0.20;;;2.00;99.90;;;;;;4996194;28;20282;-74
2022/01/08 07:08:29;;;;;;;0.20;0.20;;;2.00;99.90;;;;;;4996483;28;20176;-74
2022/01/08 07:10:55;;;;;;;0.93;0.50;;;1.90;99.90;;;;;;4996056;28;20195;-74
2022/01/08 07:13:20;;;;;;;0.40;0.37;;;1.90;99.90;;;;;;4996240;28;20172;-74
2022/01/08 07:15:46;;;;;;;0.30;0.30;;;1.90;99.90;;;;;;4994939;28;20182;-73
2022/01/08 07:18:12;;;;;;;0.53;0.53;;;1.90;99.90;;;;;;4996066;28;20203;-74
2022/01/08 07:20:38;;;;;;;0.50;0.50;;;1.90;99.90;;;;;;4996296;28;20176;-74
2022/01/08 07:23:04;;;;;;;0.50;0.47;;;1.90;99.90;;;;;;4996164;28;21020;-74
2022/01/08 07:25:29;;;;;;;0.33;0.33;;;2.00;99.90;;;;;;4995863;28;20322;-74
2022/01/08 07:27:55;;;;;;;0.67;0.53;;;2.00;99.90;;;;;;4996117;28;20176;-74
2022/01/08 07:30:21;;;;;;;0.53;0.40;;;2.30;99.90;;;;;;4995720;28;20187;-73
2022/01/08 07:32:50;;;;;;;1.50;0.40;;;1.90;99.90;;;;;;4995802;28;20214;-74
2022/01/08 07:35:19;;;;;;;0.60;0.50;;;2.00;99.90;;;;;;4995557;28;20183;-74
2022/01/08 07:37:44;;;;;;;0.40;0.40;;;2.60;99.90;;;;;;4995829;28;20180;-74
2022/01/08 07:40:15;;;;;;;0.57;0.57;;;2.00;99.90;;;;;;4995779;28;20186;-74
2022/01/08 07:42:41;;;;;;;1.20;0.50;;;2.00;99.90;;;;;;4982365;28;20206;-73
2022/01/08 07:45:09;;;;;;;0.40;0.40;;;2.00;99.90;;;;;;4994436;28;20192;-74
2022/01/08 07:47:35;;;;;;;0.33;0.33;;;2.00;99.90;;;;;;4995220;28;20172;-73
2022/01/08 07:50:01;;;;;;;0.40;0.40;;;2.00;99.90;;;;;;4993096;28;20175;-74
2022/01/08 07:52:27;;;;;;;0.40;0.37;;;2.10;99.90;;;;;;4998173;28;20195;-73
2022/01/08 07:54:53;;;;;;;0.57;0.47;;;2.10;99.90;;;;;;4996254;28;20179;-73
2022/01/08 07:57:19;;;;;;;0.40;0.40;;;2.10;99.90;;;;;;4996231;28;20200;-73
2022/01/08 07:59:45;;;;;;;0.73;0.50;;;2.00;99.90;;;;;;4995028;28;20203;-73
2022/01/08 08:02:10;;;;;;;0.40;0.40;;;2.00;99.90;;;;;;4996142;28;20195;-73
2022/01/08 08:04:37;;;;;;;0.50;0.50;;;2.20;99.90;;;;;;4994909;28;20195;-73
2022/01/08 08:07:02;;;;;;;0.83;0.70;;;2.00;99.90;;;;;;4984221;28;20179;-74
2022/01/08 08:09:28;;;;;;;0.87;0.40;;;2.10;99.90;;;;;;4982385;28;20173;-74
2022/01/08 08:11:54;;;;;;;1.20;0.40;;;2.10;99.90;;;;;;4984866;28;20717;-74
2022/01/08 08:14:20;;;;;;;0.47;0.40;;;2.10;99.90;;;;;;4978167;28;20259;-75
2022/01/08 08:16:45;;;;;;;2.17;1.70;;;2.20;99.90;;;;;;4978125;28;20531;-74
2022/01/08 08:19:11;;;;;;;4.13;2.47;;;2.20;99.90;;;;;;4977485;28;20180;-74
2022/01/08 08:21:37;;;;;;;1.77;0.90;;;2.20;99.90;;;;;;4975781;28;20247;-74
2022/01/08 08:24:05;;;;;;;1.37;1.00;;;2.20;99.90;;;;;;4975728;28;20172;-73
2022/01/08 08:26:35;;;;;;;2.27;1.10;;;2.20;99.90;;;;;;4974991;28;20177;-73
2022/01/08 08:29:01;;;;;;;0.77;0.77;;;2.20;99.90;;;;;;4981826;28;20207;-73
2022/01/08 08:31:27;;;;;;;0.90;0.70;;;2.30;99.90;;;;;;4985819;28;20258;-73
2022/01/08 08:33:52;;;;;;;0.47;0.47;;;2.20;99.90;;;;;;4977940;28;20179;-74
2022/01/08 08:36:18;;;;;;;1.47;0.77;;;2.20;99.90;;;;;;4994162;28;20179;-73
2022/01/08 08:38:44;;;;;;;1.27;0.70;;;2.20;99.90;;;;;;4995469;28;20173;-74
2022/01/08 08:41:10;;;;;;;0.50;0.50;;;2.20;99.90;;;;;;4993988;28;20615;-74
2022/01/08 08:43:36;;;;;;;1.40;0.70;;;2.70;99.90;;;;;;4993965;28;20618;-73
2022/01/08 08:46:03;;;;;;;0.77;0.60;;;2.30;99.90;;;;;;4993661;28;20234;-73
2022/01/08 08:48:28;;;;;;;1.77;0.80;;;2.20;99.90;;;;;;4995002;28;20182;-73
2022/01/08 08:50:54;;;;;;;1.00;1.00;;;2.30;99.90;;;;;;4994651;28;20164;-74
2022/01/08 08:53:20;;;;;;;2.67;2.07;;;2.10;99.90;;;;;;4993906;28;20176;-74
2022/01/08 08:55:48;;;;;;;2.80;1.60;;;2.10;99.90;;;;;;4984223;28;20175;-74
2022/01/08 08:58:14;;;;;;;2.33;1.63;;;2.10;99.90;;;;;;4986322;28;20540;-74
2022/01/08 09:00:39;;;;;;;1.90;1.30;;;2.10;99.90;;;;;;4994164;28;20172;-73
2022/01/08 09:03:05;;;;;;;1.20;0.90;;;2.10;99.90;;;;;;5001429;28;20606;-73
2022/01/08 09:05:31;;;;;;;1.87;1.53;;;2.10;99.90;;;;;;4994629;28;20203;-74
2022/01/08 09:07:56;;;;;;;3.47;1.70;;;2.10;99.90;;;;;;4994950;28;20191;-73
2022/01/08 09:10:25;;;;;;;1.73;1.33;;;2.20;99.90;;;;;;4994924;28;20168;-73
2022/01/08 09:12:53;;;;;;;2.17;1.73;;;2.30;99.90;;;;;;4994766;28;20192;-73
2022/01/08 09:15:23;;;;;;;2.20;1.90;;;2.20;99.90;;;;;;4994922;28;20307;-73
2022/01/08 09:17:50;;;;;;;1.70;1.50;;;2.20;99.90;;;;;;4994928;28;20175;-73
2022/01/08 09:20:16;;;;;;;3.30;1.10;;;2.30;99.90;;;;;;4994406;28;20187;-73
2022/01/08 09:22:42;;;;;;;2.53;1.13;;;2.30;99.90;;;;;;4994593;28;20203;-73
2022/01/08 09:25:08;;;;;;;3.37;1.47;;;2.30;99.90;;;;;;4994649;28;20202;-73
2022/01/08 09:27:34;;;;;;;1.73;1.13;;;2.40;99.90;;;;;;4994176;28;20176;-73
2022/01/08 09:30:00;;;;;;;1.70;0.80;;;2.50;99.90;;;;;;4994620;28;20255;-74
2022/01/08 09:32:26;;;;;;;1.60;0.90;;;2.50;99.90;;;;;;4993918;28;20223;-74
2022/01/08 09:40:50;;;;;;;1.40;1.00;;;2.50;99.90;;;;;;5002158;28;20233;-74
2022/01/08 09:43:17;;;;;;;1.30;1.07;;;2.70;99.90;;;;;;4995080;28;20236;-74
2022/01/08 09:45:44;;;;;;;2.60;1.20;;;2.70;99.90;;;;;;4993671;28;20234;-74
2022/01/08 09:48:12;;;;;;;2.07;1.03;;;2.60;99.90;;;;;;4994024;28;20553;-75
2022/01/08 09:50:43;;;;;;;1.33;1.17;;;2.60;99.90;;;;;;4979677;28;20262;-76
2022/01/08 09:53:10;;;;;;;1.57;1.20;;;2.60;99.90;;;;;;4980069;28;20226;-75
2022/01/08 09:55:36;;;;;;;1.57;1.00;;;2.60;99.90;;;;;;4976983;28;20175;-77
2022/01/08 09:58:02;;;;;;;1.20;1.10;;;2.60;99.90;;;;;;4989936;28;20616;-77
2022/01/08 10:00:32;;;;;;;1.53;1.10;;;2.50;99.90;;;;;;4989267;28;20188;-77
2022/01/08 10:03:23;;;;;;;3.67;1.30;;;2.50;99.90;;;;;;4995228;28;20210;-77
2022/01/08 10:05:54;;;;;;;3.57;1.20;;;2.40;99.90;;;;;;4995337;28;20286;-77
2022/01/08 10:08:26;;;;;;;3.83;1.30;;;2.40;99.90;;;;;;4990496;28;20226;-82
2022/01/08 10:11:03;;;;;;;1.73;1.10;;;2.40;99.90;;;;;;4988763;28;20636;-83
2022/01/08 10:13:35;;;;;;;2.93;1.00;;;2.50;99.90;;;;;;4990966;28;20184;-83
2022/01/08 10:18:55;;;;;;;3.97;0.90;;;2.70;99.90;;;;;;5007646;28;20286;-81
2022/01/08 10:21:52;;;;;;;3.67;0.60;;;2.80;99.90;;;;;;4988993;28;20182;-82
2022/01/08 10:28:11;;;;;;;1.97;0.90;;;2.60;99.90;;;;;;4968252;28;20207;-82
2022/01/08 10:31:29;;;;;;;5.80;1.30;;;2.60;99.90;;;;;;5008532;28;20618;-82
2022/01/08 10:34:44;;;;;;;0.90;0.80;;;2.40;99.90;;;;;;5009151;28;20183;-82
2022/01/08 10:37:30;;;;;;;1.33;1.00;;;3.30;99.90;;;;;;5008539;28;20179;-82
2022/01/08 10:42:59;;;;;;;2.80;1.30;;;1.90;99.90;;;;;;5004739;28;20217;-82
2022/01/08 10:45:25;;;;;;;1.93;1.67;;;2.40;99.90;;;;;;4975134;28;20203;-82
2022/01/08 10:48:05;;;;;;;2.00;1.37;;;2.50;99.90;;;;;;4975274;28;20222;-81
2022/01/08 10:50:41;;;;;;;4.30;1.10;;;2.50;99.90;;;;;;5007903;28;20671;-81
2022/01/08 10:53:33;;;;;;;2.60;1.23;;;2.10;99.90;;;;;;5008083;28;20172;-82
2022/01/08 10:56:26;;;;;;;5.60;1.97;;;2.60;99.90;;;;;;5004648;28;20222;-81
2022/01/08 10:59:01;;;;;;;3.10;1.30;;;2.70;99.90;;;;;;5006420;28;20316;-81
2022/01/08 11:02:10;;;;;;;1.90;0.90;;;2.70;99.90;;;;;;5008693;28;21025;-81
2022/01/08 11:04:58;;;;;;;3.17;1.00;;;2.70;99.90;;;;;;5006848;28;20199;-81
2022/01/08 11:07:33;;;;;;;1.83;0.83;;;2.70;99.90;;;;;;4992494;28;20193;-81
2022/01/08 11:10:21;;;;;;;1.67;0.90;;;2.60;99.90;;;;;;4986914;28;20184;-81
2022/01/08 11:12:56;;;;;;;3.20;1.33;;;2.00;99.90;;;;;;5009409;28;20177;-81
2022/01/08 11:15:49;;;;;;;1.03;0.83;;;2.80;99.90;;;;;;4991254;28;20176;-81
2022/01/08 11:18:27;;;;;;;0.70;0.70;;;2.30;99.90;;;;;;5007073;28;20206;-80
2022/01/08 11:20:58;;;;;;;0.60;0.60;;;3.00;99.90;;;;;;5007786;28;20180;-81
2022/01/08 11:23:28;;;;;;;0.97;0.60;;;2.20;99.90;;;;;;5006833;28;20239;-81
2022/01/08 11:25:56;;;;;;;3.30;0.97;;;2.80;99.90;;;;;;4997513;28;20204;-80
2022/01/08 11:28:31;;;;;;;1.83;0.70;;;2.90;99.90;;;;;;4996186;28;21006;-80
2022/01/08 11:31:17;;;;;;;2.57;0.60;;;3.40;99.90;;;;;;5006048;28;20175;-80
2022/01/08 11:33:48;;;;;;;1.00;0.90;;;3.00;99.90;;;;;;4983312;28;20243;-81
2022/01/08 11:36:22;;;;;;;2.87;1.10;;;2.90;99.90;;;;;;5008200;28;20195;-81
2022/01/08 11:38:50;;;;;;;2.33;1.20;;;2.90;99.90;;;;;;5005156;28;20199;-80
2022/01/08 11:41:16;;;;;;;2.67;0.90;;;4.00;99.90;;;;;;5001282;28;20187;-80
2022/01/08 11:43:49;;;;;;;1.07;0.97;;;3.70;99.90;;;;;;4999253;28;20201;-81
2022/01/08 11:46:26;;;;;;;1.10;1.00;;;2.90;99.90;;;;;;5009210;28;20196;-80
2022/01/08 11:48:59;;;;;;;2.37;1.07;;;3.80;99.90;;;;;;5014956;28;20199;-80
2022/01/08 11:51:27;;;;;;;2.50;1.20;;;2.90;99.90;;;;;;5005600;28;20562;-80
2022/01/08 11:54:08;;;;;;;1.00;0.70;;;2.90;99.90;;;;;;5010957;28;20175;-80
2022/01/08 11:56:42;;;;;;;2.43;0.70;;;3.00;99.90;;;;;;5008291;28;20167;-79
2022/01/08 11:59:21;;;;;;;0.83;0.77;;;3.50;99.90;;;;;;5008475;28;20203;-80
2022/01/08 12:02:07;;;;;;;1.97;1.07;;;2.90;99.90;;;;;;5002550;28;20176;-79
2022/01/08 12:04:34;;;;;;;1.17;0.80;;;3.10;99.90;;;;;;5001861;28;20208;-80
2022/01/08 12:07:26;;;;;;;0.90;0.70;;;3.30;99.90;;;;;;4999724;28;20543;-77
2022/01/08 12:10:14;;;;;;;1.33;0.80;;;3.20;99.90;;;;;;4991956;28;20179;-77
2022/01/08 12:13:00;;;;;;;1.70;1.07;;;3.20;99.90;;;;;;4996836;28;20176;-77
2022/01/08 12:15:58;;;;;;;1.90;0.87;;;3.20;99.90;;;;;;4986496;28;20180;-77
2022/01/08 12:18:28;;;;;;;0.90;0.77;;;3.20;99.90;;;;;;4949166;28;20217;-76
2022/01/08 12:20:56;;;;;;;1.83;0.73;;;3.20;99.90;;;;;;4969446;28;20216;-77
2022/01/08 12:23:38;;;;;;;1.40;1.10;;;3.10;99.90;;;;;;4973523;28;20176;-76
2022/01/08 12:26:16;;;;;;;1.80;0.80;;;3.10;99.90;;;;;;4972613;28;20206;-77
2022/01/08 12:29:04;;;;;;;1.17;0.90;;;3.10;99.90;;;;;;4993517;28;20207;-77
2022/01/08 12:31:48;;;;;;;2.77;0.80;;;3.00;99.90;;;;;;4988124;28;20200;-78
2022/01/08 12:34:44;;;;;;;1.47;1.10;;;3.10;99.90;;;;;;4967927;28;20173;-77
2022/01/08 12:37:12;;;;;;;1.00;0.90;;;3.10;99.90;;;;;;4991278;28;20589;-77
2022/01/08 12:39:48;;;;;;;0.93;0.83;;;3.10;99.90;;;;;;4987950;28;20187;-77
2022/01/08 12:42:20;;;;;;;0.90;0.80;;;3.10;99.90;;;;;;4975679;28;20207;-77
2022/01/08 12:45:03;;;;;;;0.83;0.73;;;3.20;99.90;;;;;;4979134;28;20224;-78
2022/01/08 12:47:48;;;;;;;1.30;0.90;;;3.20;99.90;;;;;;4975046;28;20253;-78
2022/01/08 12:50:28;;;;;;;2.53;0.70;;;3.20;99.90;;;;;;4977429;28;20178;-78
2022/01/08 12:53:06;;;;;;;1.80;1.23;;;3.20;99.90;;;;;;4984296;28;20185;-77
2022/01/08 12:55:53;;;;;;;1.70;1.40;;;3.20;99.90;;;;;;4985185;28;20185;-76
2022/01/08 12:58:29;;;;;;;1.80;1.00;;;3.30;99.90;;;;;;4976891;28;20208;-76
2022/01/08 13:01:06;;;;;;;1.20;1.10;;;3.30;99.90;;;;;;4979245;28;21169;-78
2022/01/08 13:16:36;;;;;;;1.53;0.80;;;3.30;99.90;;;;;;5035820;23;20740;-80
2022/01/08 13:19:06;;;;;;;2.17;1.17;;;3.30;99.90;;;;;;4990771;28;20193;-79
2022/01/08 13:21:41;;;;;;;1.77;0.87;;;3.40;99.90;;;;;;4965844;28;20255;-80
2022/01/08 13:24:15;;;;;;;1.20;0.80;;;3.40;99.90;;;;;;4996910;28;20174;-78
2022/01/08 13:26:42;;;;;;;1.27;0.80;;;3.50;99.90;;;;;;4976259;28;20590;-79
2022/01/08 13:29:22;;;;;;;1.60;1.10;;;3.80;99.90;;;;;;4965461;28;20240;-79
2022/01/08 13:31:55;;;;;;;2.77;1.00;;;3.60;99.90;;;;;;4958182;28;20177;-78
2022/01/08 13:34:22;;;;;;;2.10;1.00;;;3.70;99.90;;;;;;5031189;23;20690;-81
2022/01/08 13:36:58;;;;;;;2.20;1.33;;;3.60;99.90;;;;;;5005873;28;20702;-81
2022/01/08 13:39:34;;;;;;;4.43;1.20;;;3.70;99.90;;;;;;4999518;28;20173;-81
2022/01/08 13:42:07;;;;;;;1.60;1.00;;;3.70;99.90;;;;;;5020619;28;20178;-80
2022/01/08 13:44:33;;;;;;;2.23;1.20;;;3.70;99.90;;;;;;4999448;28;20699;-81
2022/01/08 13:46:59;;;;;;;2.00;1.40;;;3.70;99.90;;;;;;5001369;28;20170;-82
2022/01/08 13:49:25;;;;;;;2.03;1.47;;;3.60;99.90;;;;;;5006395;28;20194;-82
2022/01/08 13:51:51;;;;;;;2.50;1.47;;;3.70;99.90;;;;;;4988900;28;20174;-81
2022/01/08 13:54:17;;;;;;;2.67;1.40;;;3.70;99.90;;;;;;4997079;28;20568;-81
2022/01/08 13:56:43;;;;;;;3.83;1.20;;;3.70;99.90;;;;;;5000629;28;20178;-81
2022/01/08 13:59:11;;;;;;;2.17;1.30;;;3.70;99.90;;;;;;5002447;28;20180;-81